sensor_id;sensor_type;location;lat;lon;timestamp;pressure;altitude;pressure_sealevel;temperature;humidity
85376;BME280;75780;43.986;22.860;2024-02-26T00:00:33;100882.13;;;7.97;86.28
85376;BME280;75780;43.986;22.860;2024-02-26T00:03:00;100836.69;;;7.65;86.14
85376;BME280;75780;43.986;22.860;2024-02-26T00:05:26;100893.31;;;7.92;85.60
85376;BME280;75780;43.986;22.860;2024-02-26T00:07:51;100854.69;;;7.75;85.65
85376;BME280;75780;43.986;22.860;2024-02-26T00:10:17;100861.63;;;7.60;86.46
85376;BME280;75780;43.986;22.860;2024-02-26T00:12:42;100830.72;;;7.44;88.36
85376;BME280;75780;43.986;22.860;2024-02-26T00:15:09;100880.50;;;7.78;87.96
85376;BME280;75780;43.986;22.860;2024-02-26T00:17:35;100872.66;;;7.99;86.91
85376;BME280;75780;43.986;22.860;2024-02-26T00:20:04;100877.84;;;7.95;86.87
85376;BME280;75780;43.986;22.860;2024-02-26T00:22:33;100836.78;;;7.40;88.44
85376;BME280;75780;43.986;22.860;2024-02-26T00:24:59;100875.38;;;7.72;88.01
85376;BME280;75780;43.986;22.860;2024-02-26T00:27:24;100845.34;;;7.46;86.76
85376;BME280;75780;43.986;22.860;2024-02-26T00:29:49;100871.13;;;7.42;88.29
85376;BME280;75780;43.986;22.860;2024-02-26T00:32:15;100871.13;;;7.46;87.74
85376;BME280;75780;43.986;22.860;2024-02-26T00:34:42;100814.47;;;7.20;87.95
85376;BME280;75780;43.986;22.860;2024-02-26T00:37:07;100814.47;;;7.18;88.13
85376;BME280;75780;43.986;22.860;2024-02-26T00:39:32;100815.34;;;7.04;88.82
85376;BME280;75780;43.986;22.860;2024-02-26T00:41:58;100818.81;;;7.03;88.47
85376;BME280;75780;43.986;22.860;2024-02-26T00:44:23;100870.28;;;7.36;87.25
85376;BME280;75780;43.986;22.860;2024-02-26T00:46:49;100866.00;;;7.20;88.17
85376;BME280;75780;43.986;22.860;2024-02-26T00:49:14;100805.09;;;6.70;89.12
85376;BME280;75780;43.986;22.860;2024-02-26T00:51:40;100834.22;;;7.24;87.23
85376;BME280;75780;43.986;22.860;2024-02-26T00:54:05;100845.34;;;7.39;88.33
85376;BME280;75780;43.986;22.860;2024-02-26T00:56:31;100820.50;;;7.04;88.73
85376;BME280;75780;43.986;22.860;2024-02-26T00:58:56;100862.59;;;7.27;88.04
85376;BME280;75780;43.986;22.860;2024-02-26T01:01:22;100813.63;;;7.01;88.67
85376;BME280;75780;43.986;22.860;2024-02-26T01:03:47;100839.41;;;7.12;89.26
85376;BME280;75780;43.986;22.860;2024-02-26T01:06:13;100864.25;;;7.41;87.42
85376;BME280;75780;43.986;22.860;2024-02-26T01:08:38;100809.34;;;7.02;88.32
85376;BME280;75780;43.986;22.860;2024-02-26T01:11:04;100860.84;;;7.27;87.94
85376;BME280;75780;43.986;22.860;2024-02-26T01:13:30;100818.81;;;6.79;87.76
85376;BME280;75780;43.986;22.860;2024-02-26T01:15:55;100849.72;;;7.09;88.34
85376;BME280;75780;43.986;22.860;2024-02-26T01:18:20;100818.81;;;6.82;87.38
85376;BME280;75780;43.986;22.860;2024-02-26T01:20:46;100867.72;;;7.10;86.28
85376;BME280;75780;43.986;22.860;2024-02-26T01:23:12;100868.63;;;6.97;88.65
85376;BME280;75780;43.986;22.860;2024-02-26T01:25:38;100801.63;;;6.87;87.83
85376;BME280;75780;43.986;22.860;2024-02-26T01:28:04;100840.22;;;7.41;86.77
85376;BME280;75780;43.986;22.860;2024-02-26T01:30:30;100842.84;;;7.17;86.48
85376;BME280;75780;43.986;22.860;2024-02-26T01:32:56;100860.84;;;7.15;88.25
85376;BME280;75780;43.986;22.860;2024-02-26T01:35:21;100854.84;;;7.21;86.64
85376;BME280;75780;43.986;22.860;2024-02-26T01:37:47;100802.50;;;6.83;88.13
85376;BME280;75780;43.986;22.860;2024-02-26T01:40:12;100859.16;;;7.07;88.71
85376;BME280;75780;43.986;22.860;2024-02-26T01:42:43;100848.88;;;6.95;89.01
85376;BME280;75780;43.986;22.860;2024-02-26T01:45:13;100841.13;;;6.90;88.52
85376;BME280;75780;43.986;22.860;2024-02-26T01:48:00;100853.16;;;7.02;88.52
85376;BME280;75780;43.986;22.860;2024-02-26T01:50:26;100775.91;;;6.59;88.52
85376;BME280;75780;43.986;22.860;2024-02-26T01:52:54;100854.88;;;6.97;88.29
85376;BME280;75780;43.986;22.860;2024-02-26T01:55:22;100850.59;;;6.97;88.42
85376;BME280;75780;43.986;22.860;2024-02-26T01:57:49;100794.78;;;6.73;87.60
85376;BME280;75780;43.986;22.860;2024-02-26T02:00:18;100825.69;;;6.95;88.11
85376;BME280;75780;43.986;22.860;2024-02-26T02:02:44;100849.69;;;7.25;86.08
85376;BME280;75780;43.986;22.860;2024-02-26T02:05:16;100852.25;;;7.28;87.25
85376;BME280;75780;43.986;22.860;2024-02-26T02:07:45;100807.66;;;6.83;85.47
85376;BME280;75780;43.986;22.860;2024-02-26T02:10:11;100817.09;;;6.65;86.20
85376;BME280;75780;43.986;22.860;2024-02-26T02:12:38;100866.03;;;6.94;86.57
85376;BME280;75780;43.986;22.860;2024-02-26T02:15:05;100805.09;;;6.40;88.65
85376;BME280;75780;43.986;22.860;2024-02-26T02:17:31;100840.25;;;6.58;89.90
85376;BME280;75780;43.986;22.860;2024-02-26T02:19:57;100851.44;;;6.72;89.15
85376;BME280;75780;43.986;22.860;2024-02-26T02:22:22;100848.00;;;6.74;87.77
85376;BME280;75780;43.986;22.860;2024-02-26T02:24:52;100853.16;;;6.78;88.11
85376;BME280;75780;43.986;22.860;2024-02-26T02:27:18;100864.31;;;6.86;86.85
85376;BME280;75780;43.986;22.860;2024-02-26T02:29:44;100866.03;;;6.91;86.90
85376;BME280;75780;43.986;22.860;2024-02-26T02:32:10;100859.16;;;6.84;86.82
85376;BME280;75780;43.986;22.860;2024-02-26T02:34:35;100829.97;;;6.55;86.47
85376;BME280;75780;43.986;22.860;2024-02-26T02:37:01;100865.16;;;6.72;87.60
85376;BME280;75780;43.986;22.860;2024-02-26T02:39:28;100869.47;;;6.73;86.75
85376;BME280;75780;43.986;22.860;2024-02-26T02:41:54;100868.59;;;6.62;87.22
85376;BME280;75780;43.986;22.860;2024-02-26T02:44:19;100865.16;;;6.60;87.71
85376;BME280;75780;43.986;22.860;2024-02-26T02:46:44;100809.34;;;6.25;88.12
85376;BME280;75780;43.986;22.860;2024-02-26T02:49:10;100854.84;;;6.45;88.78
85376;BME280;75780;43.986;22.860;2024-02-26T02:51:36;100795.63;;;6.17;88.38
85376;BME280;75780;43.986;22.860;2024-02-26T02:54:02;100854.00;;;6.52;87.50
85376;BME280;75780;43.986;22.860;2024-02-26T02:56:27;100866.88;;;6.58;87.41
85376;BME280;75780;43.986;22.860;2024-02-26T02:58:53;100833.38;;;6.37;87.47
85376;BME280;75780;43.986;22.860;2024-02-26T03:01:18;100873.75;;;6.68;87.18
85376;BME280;75780;43.986;22.860;2024-02-26T03:03:44;100827.34;;;6.16;88.42
85376;BME280;75780;43.986;22.860;2024-02-26T03:06:09;100820.47;;;6.19;87.92
85376;BME280;75780;43.986;22.860;2024-02-26T03:08:35;100830.81;;;6.37;87.12
85376;BME280;75780;43.986;22.860;2024-02-26T03:11:04;100891.78;;;6.64;87.03
85376;BME280;75780;43.986;22.860;2024-02-26T03:13:29;100885.75;;;6.53;87.08
85376;BME280;75780;43.986;22.860;2024-02-26T03:15:55;100831.63;;;6.24;86.10
85376;BME280;75780;43.986;22.860;2024-02-26T03:18:21;100832.47;;;6.06;88.18
85376;BME280;75780;43.986;22.860;2024-02-26T03:20:47;100874.53;;;6.30;87.99
85376;BME280;75780;43.986;22.860;2024-02-26T03:23:12;100848.78;;;6.16;88.44
85376;BME280;75780;43.986;22.860;2024-02-26T03:25:42;100868.50;;;6.20;89.25
85376;BME280;75780;43.986;22.860;2024-02-26T03:31:29;100868.59;;;6.53;88.23
85376;BME280;75780;43.986;22.860;2024-02-26T03:33:55;100828.19;;;6.22;88.77
85376;BME280;75780;43.986;22.860;2024-02-26T03:36:20;100871.16;;;6.49;88.22
85376;BME280;75780;43.986;22.860;2024-02-26T03:38:49;100884.88;;;6.42;89.08
85376;BME280;75780;43.986;22.860;2024-02-26T03:41:14;100865.97;;;6.31;88.68
85376;BME280;75780;43.986;22.860;2024-02-26T03:43:40;100867.69;;;6.33;91.32
85376;BME280;75780;43.986;22.860;2024-02-26T03:46:09;100821.31;;;6.06;91.11
85376;BME280;75780;43.986;22.860;2024-02-26T03:48:36;100823.94;;;6.21;89.98
85376;BME280;75780;43.986;22.860;2024-02-26T03:51:02;100878.84;;;6.46;89.55
85376;BME280;75780;43.986;22.860;2024-02-26T03:53:28;100829.91;;;6.20;89.10
85376;BME280;75780;43.986;22.860;2024-02-26T03:55:53;100829.91;;;6.13;89.66
85376;BME280;75780;43.986;22.860;2024-02-26T03:58:20;100885.72;;;6.39;89.81
85376;BME280;75780;43.986;22.860;2024-02-26T04:00:46;100835.06;;;6.25;87.41
85376;BME280;75780;43.986;22.860;2024-02-26T04:03:13;100874.59;;;6.45;87.29
85376;BME280;75780;43.986;22.860;2024-02-26T04:05:39;100840.16;;;5.94;88.23
85376;BME280;75780;43.986;22.860;2024-02-26T04:08:05;100869.31;;;5.99;89.71
85376;BME280;75780;43.986;22.860;2024-02-26T04:10:32;100822.88;;;5.72;88.92
85376;BME280;75780;43.986;22.860;2024-02-26T04:12:57;100799.63;;;5.50;89.17
85376;BME280;75780;43.986;22.860;2024-02-26T04:15:23;100876.19;;;6.09;88.59
85376;BME280;75780;43.986;22.860;2024-02-26T04:17:48;100877.91;;;6.06;88.76
85376;BME280;75780;43.986;22.860;2024-02-26T04:20:15;100885.63;;;6.07;88.38
85376;BME280;75780;43.986;22.860;2024-02-26T04:22:41;100865.91;;;6.09;87.69
85376;BME280;75780;43.986;22.860;2024-02-26T04:25:07;100888.16;;;5.98;88.02
85376;BME280;75780;43.986;22.860;2024-02-26T04:27:32;100890.72;;;6.00;88.35
85376;BME280;75780;43.986;22.860;2024-02-26T04:29:58;100848.69;;;5.87;88.76
85376;BME280;75780;43.986;22.860;2024-02-26T04:32:23;100837.47;;;5.78;88.70
85376;BME280;75780;43.986;22.860;2024-02-26T04:34:49;100896.75;;;6.03;88.06
85376;BME280;75780;43.986;22.860;2024-02-26T04:37:14;100890.78;;;6.06;87.91
85376;BME280;75780;43.986;22.860;2024-02-26T04:39:40;100887.25;;;5.89;88.66
85376;BME280;75780;43.986;22.860;2024-02-26T04:42:05;100802.97;;;5.30;89.81
85376;BME280;75780;43.986;22.860;2024-02-26T04:44:31;100874.31;;;5.77;88.81
85376;BME280;75780;43.986;22.860;2024-02-26T04:46:56;100863.19;;;5.73;88.84
85376;BME280;75780;43.986;22.860;2024-02-26T04:49:22;100901.88;;;5.97;88.71
85376;BME280;75780;43.986;22.860;2024-02-26T04:51:47;100856.28;;;5.69;88.72
85376;BME280;75780;43.986;22.860;2024-02-26T04:54:13;100911.31;;;5.97;88.15
85376;BME280;75780;43.986;22.860;2024-02-26T04:56:39;100866.59;;;5.71;87.94
85376;BME280;75780;43.986;22.860;2024-02-26T04:59:04;100858.88;;;5.71;87.65
85376;BME280;75780;43.986;22.860;2024-02-26T05:01:29;100902.75;;;5.96;87.13
85376;BME280;75780;43.986;22.860;2024-02-26T05:03:55;100925.00;;;5.93;87.10
85376;BME280;75780;43.986;22.860;2024-02-26T05:06:20;100880.25;;;5.65;87.52
85376;BME280;75780;43.986;22.860;2024-02-26T05:08:46;100869.88;;;5.47;88.97
85376;BME280;75780;43.986;22.860;2024-02-26T05:11:11;100910.38;;;5.83;88.08
85376;BME280;75780;43.986;22.860;2024-02-26T05:13:37;100875.16;;;5.68;88.60
85376;BME280;75780;43.986;22.860;2024-02-26T05:16:03;100874.22;;;5.62;86.81
85376;BME280;75780;43.986;22.860;2024-02-26T05:18:28;100930.97;;;5.90;87.12
85376;BME280;75780;43.986;22.860;2024-02-26T05:20:53;100929.19;;;5.79;88.92
85376;BME280;75780;43.986;22.860;2024-02-26T05:23:19;100947.13;;;5.68;90.02
85376;BME280;75780;43.986;22.860;2024-02-26T05:25:44;100904.19;;;5.54;89.50
85376;BME280;75780;43.986;22.860;2024-02-26T05:28:12;100953.28;;;5.93;88.26
85376;BME280;75780;43.986;22.860;2024-02-26T05:30:38;100929.31;;;5.98;87.93
85376;BME280;75780;43.986;22.860;2024-02-26T05:33:05;100923.38;;;6.13;87.55
85376;BME280;75780;43.986;22.860;2024-02-26T05:35:30;100930.25;;;6.17;88.14
85376;BME280;75780;43.986;22.860;2024-02-26T05:37:56;100926.03;;;6.43;87.67
85376;BME280;75780;43.986;22.860;2024-02-26T05:40:21;100880.50;;;6.15;87.34
85376;BME280;75780;43.986;22.860;2024-02-26T05:42:47;100830.59;;;5.77;88.00
85376;BME280;75780;43.986;22.860;2024-02-26T05:45:14;100882.19;;;6.10;88.20
85376;BME280;75780;43.986;22.860;2024-02-26T05:47:40;100930.44;;;6.71;89.31
85376;BME280;75780;43.986;22.860;2024-02-26T05:50:09;100917.53;;;6.74;87.86
85376;BME280;75780;43.986;22.860;2024-02-26T05:52:39;100902.06;;;6.62;87.12
85376;BME280;75780;43.986;22.860;2024-02-26T05:55:05;100899.47;;;6.53;86.71
85376;BME280;75780;43.986;22.860;2024-02-26T05:57:31;100898.63;;;6.69;86.48
85376;BME280;75780;43.986;22.860;2024-02-26T05:59:57;100961.34;;;6.99;86.85
85376;BME280;75780;43.986;22.860;2024-02-26T06:02:26;100943.34;;;6.97;86.03
85376;BME280;75780;43.986;22.860;2024-02-26T06:04:51;100949.34;;;7.14;86.51
85376;BME280;75780;43.986;22.860;2024-02-26T06:07:17;100967.38;;;7.49;84.99
85376;BME280;75780;43.986;22.860;2024-02-26T06:09:42;100957.94;;;7.60;84.05
85376;BME280;75780;43.986;22.860;2024-02-26T06:12:08;100918.41;;;7.16;85.58
85376;BME280;75780;43.986;22.860;2024-02-26T06:14:33;100974.25;;;7.42;86.17
85376;BME280;75780;43.986;22.860;2024-02-26T06:16:59;100968.22;;;7.63;85.51
85376;BME280;75780;43.986;22.860;2024-02-26T06:19:24;100970.81;;;7.60;86.68
85376;BME280;75780;43.986;22.860;2024-02-26T06:21:50;100988.00;;;7.40;86.35
85376;BME280;75780;43.986;22.860;2024-02-26T06:24:16;100948.47;;;7.35;86.94
85376;BME280;75780;43.986;22.860;2024-02-26T06:26:41;100978.53;;;7.63;85.70
85376;BME280;75780;43.986;22.860;2024-02-26T06:29:07;100944.16;;;7.52;85.61
85376;BME280;75780;43.986;22.860;2024-02-26T06:31:32;100981.94;;;7.98;84.96
85376;BME280;75780;43.986;22.860;2024-02-26T06:33:58;100927.84;;;7.65;84.69
85376;BME280;75780;43.986;22.860;2024-02-26T06:36:23;100928.63;;;7.78;84.37
85376;BME280;75780;43.986;22.860;2024-02-26T06:38:49;100981.84;;;8.23;84.53
85376;BME280;75780;43.986;22.860;2024-02-26T06:41:14;100976.69;;;8.17;83.07
85376;BME280;75780;43.986;22.860;2024-02-26T06:43:40;100918.31;;;7.87;84.92
85376;BME280;75780;43.986;22.860;2024-02-26T06:46:06;100939.72;;;8.15;82.58
85376;BME280;75780;43.986;22.860;2024-02-26T06:48:32;100994.56;;;8.69;82.02
85376;BME280;75780;43.986;22.860;2024-02-26T06:50:58;100996.34;;;8.60;82.25
85376;BME280;75780;43.986;22.860;2024-02-26T06:53:23;100974.91;;;8.43;82.82
85376;BME280;75780;43.986;22.860;2024-02-26T06:55:48;100936.13;;;8.53;80.99
85376;BME280;75780;43.986;22.860;2024-02-26T06:58:15;100932.50;;;8.80;80.31
85376;BME280;75780;43.986;22.860;2024-02-26T07:00:41;100923.75;;;9.01;80.23
85376;BME280;75780;43.986;22.860;2024-02-26T07:03:06;100933.94;;;9.17;79.61
85376;BME280;75780;43.986;22.860;2024-02-26T07:05:32;100989.78;;;9.39;79.18
85376;BME280;75780;43.986;22.860;2024-02-26T07:07:57;100938.25;;;9.18;79.07
85376;BME280;75780;43.986;22.860;2024-02-26T07:10:23;100995.66;;;9.61;80.08
85376;BME280;75780;43.986;22.860;2024-02-26T07:12:48;100996.31;;;9.81;78.55
85376;BME280;75780;43.986;22.860;2024-02-26T07:15:14;100901.13;;;9.24;78.50
85376;BME280;75780;43.986;22.860;2024-02-26T07:17:39;101002.91;;;10.11;77.99
85376;BME280;75780;43.986;22.860;2024-02-26T07:20:12;101008.97;;;10.08;77.74
85376;BME280;75780;43.986;22.860;2024-02-26T07:22:37;100962.59;;;9.90;78.25
85376;BME280;75780;43.986;22.860;2024-02-26T07:25:03;101013.75;;;10.48;76.80
85376;BME280;75780;43.986;22.860;2024-02-26T07:27:29;101016.00;;;10.73;75.96
85376;BME280;75780;43.986;22.860;2024-02-26T07:29:54;101010.81;;;10.73;75.37
85376;BME280;75780;43.986;22.860;2024-02-26T07:32:20;101014.91;;;10.90;75.53
85376;BME280;75780;43.986;22.860;2024-02-26T07:34:45;101019.56;;;10.66;75.85
85376;BME280;75780;43.986;22.860;2024-02-26T07:37:11;100971.47;;;10.44;76.70
85376;BME280;75780;43.986;22.860;2024-02-26T07:39:37;100980.31;;;10.28;76.40
85376;BME280;75780;43.986;22.860;2024-02-26T07:42:03;100975.84;;;10.39;75.68
85376;BME280;75780;43.986;22.860;2024-02-26T07:44:28;100982.94;;;10.22;77.38
85376;BME280;75780;43.986;22.860;2024-02-26T07:46:54;100986.34;;;10.27;76.19
85376;BME280;75780;43.986;22.860;2024-02-26T07:49:19;100977.78;;;10.22;75.96
85376;BME280;75780;43.986;22.860;2024-02-26T07:51:45;100975.94;;;10.33;76.36
85376;BME280;75780;43.986;22.860;2024-02-26T07:54:10;101008.19;;;10.76;76.43
85376;BME280;75780;43.986;22.860;2024-02-26T07:56:36;100974.00;;;10.50;75.83
85376;BME280;75780;43.986;22.860;2024-02-26T07:59:01;101007.44;;;10.68;75.53
85376;BME280;75780;43.986;22.860;2024-02-26T08:01:27;101026.47;;;10.67;76.05
85376;BME280;75780;43.986;22.860;2024-02-26T08:03:53;100975.91;;;10.36;75.58
85376;BME280;75780;43.986;22.860;2024-02-26T08:06:19;101009.22;;;10.65;75.54
85376;BME280;75780;43.986;22.860;2024-02-26T08:08:44;101004.69;;;10.79;74.98
85376;BME280;75780;43.986;22.860;2024-02-26T08:11:10;101002.91;;;10.83;75.52
85376;BME280;75780;43.986;22.860;2024-02-26T08:13:35;101003.47;;;11.06;74.19
85376;BME280;75780;43.986;22.860;2024-02-26T08:16:01;100962.41;;;10.75;73.65
85376;BME280;75780;43.986;22.860;2024-02-26T08:18:27;100897.47;;;10.22;74.19
85376;BME280;75780;43.986;22.860;2024-02-26T08:20:52;100965.00;;;10.75;74.07
85376;BME280;75780;43.986;22.860;2024-02-26T08:23:18;101013.00;;;11.02;74.06
85376;BME280;75780;43.986;22.860;2024-02-26T08:25:43;101002.53;;;11.10;73.64
85376;BME280;75780;43.986;22.860;2024-02-26T08:28:09;101008.50;;;11.13;73.29
85376;BME280;75780;43.986;22.860;2024-02-26T08:30:36;101018.78;;;11.22;73.16
85376;BME280;75780;43.986;22.860;2024-02-26T08:33:22;100979.69;;;10.76;73.49
85376;BME280;75780;43.986;22.860;2024-02-26T08:35:47;100976.88;;;10.90;73.28
85376;BME280;75780;43.986;22.860;2024-02-26T08:38:12;101006.56;;;11.29;72.42
85376;BME280;75780;43.986;22.860;2024-02-26T08:40:38;101020.66;;;11.13;72.71
85376;BME280;75780;43.986;22.860;2024-02-26T08:43:04;101022.13;;;11.29;72.76
85376;BME280;75780;43.986;22.860;2024-02-26T08:45:29;101028.88;;;11.37;72.33
85376;BME280;75780;43.986;22.860;2024-02-26T08:47:54;101022.78;;;11.40;72.27
85376;BME280;75780;43.986;22.860;2024-02-26T08:50:20;101013.00;;;11.59;71.37
85376;BME280;75780;43.986;22.860;2024-02-26T08:52:45;100969.63;;;11.64;70.17
85376;BME280;75780;43.986;22.860;2024-02-26T08:55:15;100954.22;;;11.55;70.87
85376;BME280;75780;43.986;22.860;2024-02-26T08:57:41;100944.34;;;11.76;69.79
85376;BME280;75780;43.986;22.860;2024-02-26T09:00:07;100981.25;;;11.93;69.80
85376;BME280;75780;43.986;22.860;2024-02-26T09:02:32;100991.75;;;12.32;68.84
85376;BME280;75780;43.986;22.860;2024-02-26T09:04:58;100993.19;;;12.46;68.59
85376;BME280;75780;43.986;22.860;2024-02-26T09:07:23;100949.09;;;12.42;67.42
85376;BME280;75780;43.986;22.860;2024-02-26T09:09:49;100949.13;;;12.40;67.80
85376;BME280;75780;43.986;22.860;2024-02-26T09:12:14;100941.34;;;12.39;66.79
85376;BME280;75780;43.986;22.860;2024-02-26T09:14:40;100975.00;;;12.85;66.46
85376;BME280;75780;43.986;22.860;2024-02-26T09:17:05;100952.41;;;12.50;66.51
85376;BME280;75780;43.986;22.860;2024-02-26T09:19:32;100997.06;;;12.68;68.44
85376;BME280;75780;43.986;22.860;2024-02-26T09:21:58;101002.91;;;12.37;68.49
85376;BME280;75780;43.986;22.860;2024-02-26T09:24:24;101009.78;;;12.81;67.21
85376;BME280;75780;43.986;22.860;2024-02-26T09:26:50;100915.81;;;12.59;65.34
85376;BME280;75780;43.986;22.860;2024-02-26T09:29:16;100976.56;;;12.93;65.52
85376;BME280;75780;43.986;22.860;2024-02-26T09:31:41;100999.31;;;12.44;66.11
85376;BME280;75780;43.986;22.860;2024-02-26T09:34:07;101018.47;;;12.38;67.41
85376;BME280;75780;43.986;22.860;2024-02-26T09:36:36;101017.69;;;12.35;68.61
85376;BME280;75780;43.986;22.860;2024-02-26T09:39:01;101014.91;;;12.44;68.86
85376;BME280;75780;43.986;22.860;2024-02-26T09:41:28;101021.09;;;12.37;68.49
85376;BME280;75780;43.986;22.860;2024-02-26T09:43:57;101006.94;;;12.08;69.35
85376;BME280;75780;43.986;22.860;2024-02-26T09:46:27;100968.44;;;11.84;69.55
85376;BME280;75780;43.986;22.860;2024-02-26T09:48:53;101024.91;;;12.21;69.67
85376;BME280;75780;43.986;22.860;2024-02-26T09:51:22;101031.69;;;12.26;69.07
85376;BME280;75780;43.986;22.860;2024-02-26T09:53:51;100975.94;;;11.99;69.82
85376;BME280;75780;43.986;22.860;2024-02-26T09:56:17;101027.50;;;12.63;67.92
85376;BME280;75780;43.986;22.860;2024-02-26T09:58:43;101008.31;;;12.69;67.34
85376;BME280;75780;43.986;22.860;2024-02-26T10:01:16;101025.59;;;12.71;67.15
85376;BME280;75780;43.986;22.860;2024-02-26T10:03:42;101023.97;;;12.23;69.54
85376;BME280;75780;43.986;22.860;2024-02-26T10:06:10;101017.75;;;12.73;68.59
85376;BME280;75780;43.986;22.860;2024-02-26T10:08:36;101006.66;;;12.65;67.17
85376;BME280;75780;43.986;22.860;2024-02-26T10:11:05;101012.66;;;12.67;67.36
85376;BME280;75780;43.986;22.860;2024-02-26T10:13:32;101012.91;;;12.55;67.57
85376;BME280;75780;43.986;22.860;2024-02-26T10:15:57;101000.69;;;12.60;67.43
85376;BME280;75780;43.986;22.860;2024-02-26T10:18:24;101000.38;;;12.34;68.63
85376;BME280;75780;43.986;22.860;2024-02-26T10:21:07;100987.66;;;12.20;68.90
85376;BME280;75780;43.986;22.860;2024-02-26T10:23:33;100981.41;;;12.70;67.34
85376;BME280;75780;43.986;22.860;2024-02-26T10:25:58;100998.47;;;12.83;67.27
85376;BME280;75780;43.986;22.860;2024-02-26T10:28:24;100983.63;;;13.26;65.31
85376;BME280;75780;43.986;22.860;2024-02-26T10:30:51;100984.56;;;13.22;65.59
85376;BME280;75780;43.986;22.860;2024-02-26T10:33:18;100912.31;;;12.97;65.23
85376;BME280;75780;43.986;22.860;2024-02-26T10:35:47;100955.81;;;13.28;64.97
85376;BME280;75780;43.986;22.860;2024-02-26T10:38:12;100961.06;;;13.25;65.32
85376;BME280;75780;43.986;22.860;2024-02-26T10:40:39;100965.59;;;13.53;65.21
85376;BME280;75780;43.986;22.860;2024-02-26T10:43:04;100914.34;;;13.55;63.51
85376;BME280;75780;43.986;22.860;2024-02-26T10:45:29;100966.41;;;13.87;64.16
85376;BME280;75780;43.986;22.860;2024-02-26T10:47:57;100909.94;;;13.57;63.15
85376;BME280;75780;43.986;22.860;2024-02-26T10:50:22;100954.19;;;13.90;63.05
85376;BME280;75780;43.986;22.860;2024-02-26T10:52:48;100911.53;;;12.93;65.15
85376;BME280;75780;43.986;22.860;2024-02-26T10:55:16;100902.75;;;12.97;66.40
85376;BME280;75780;43.986;22.860;2024-02-26T10:57:45;100950.28;;;13.40;64.57
85376;BME280;75780;43.986;22.860;2024-02-26T11:00:15;100951.88;;;12.74;67.26
85376;BME280;75780;43.986;22.860;2024-02-26T11:02:41;100953.22;;;12.50;68.47
85376;BME280;75780;43.986;22.860;2024-02-26T11:05:07;100953.41;;;13.55;64.95
85376;BME280;75780;43.986;22.860;2024-02-26T11:07:36;100962.59;;;13.68;64.52
85376;BME280;75780;43.986;22.860;2024-02-26T11:10:04;100966.78;;;13.75;63.60
85376;BME280;75780;43.986;22.860;2024-02-26T11:12:32;100923.34;;;13.41;64.39
85376;BME280;75780;43.986;22.860;2024-02-26T11:14:57;100942.28;;;13.13;65.97
85376;BME280;75780;43.986;22.860;2024-02-26T11:17:27;100915.09;;;13.26;64.61
85376;BME280;75780;43.986;22.860;2024-02-26T11:19:57;100951.97;;;13.41;64.49
85376;BME280;75780;43.986;22.860;2024-02-26T11:22:26;100971.59;;;12.83;65.86
85376;BME280;75780;43.986;22.860;2024-02-26T11:24:56;100965.72;;;13.13;65.87
85376;BME280;75780;43.986;22.860;2024-02-26T11:27:36;100912.03;;;13.09;65.13
85376;BME280;75780;43.986;22.860;2024-02-26T11:30:05;100914.91;;;13.33;64.11
85376;BME280;75780;43.986;22.860;2024-02-26T11:32:34;100896.69;;;13.33;63.75
85376;BME280;75780;43.986;22.860;2024-02-26T11:35:00;100913.28;;;12.93;65.92
85376;BME280;75780;43.986;22.860;2024-02-26T11:37:26;100954.16;;;12.88;66.51
85376;BME280;75780;43.986;22.860;2024-02-26T11:39:52;100947.91;;;12.95;66.51
85376;BME280;75780;43.986;22.860;2024-02-26T11:42:23;100948.28;;;13.16;64.93
85376;BME280;75780;43.986;22.860;2024-02-26T11:44:49;100944.75;;;13.19;66.29
85376;BME280;75780;43.986;22.860;2024-02-26T11:47:20;100937.53;;;13.64;64.91
85376;BME280;75780;43.986;22.860;2024-02-26T11:49:46;100949.34;;;13.77;63.56
85376;BME280;75780;43.986;22.860;2024-02-26T11:52:13;100884.44;;;13.69;63.51
85376;BME280;75780;43.986;22.860;2024-02-26T11:54:49;100936.88;;;14.19;61.80
85376;BME280;75780;43.986;22.860;2024-02-26T12:02:49;100917.66;;;14.23;61.99
85376;BME280;75780;43.986;22.860;2024-02-26T12:05:19;100924.09;;;14.40;61.28
85376;BME280;75780;43.986;22.860;2024-02-26T12:07:50;100919.16;;;14.60;59.69
85376;BME280;75780;43.986;22.860;2024-02-26T12:10:23;100863.34;;;14.38;60.69
85376;BME280;75780;43.986;22.860;2024-02-26T12:13:02;100908.34;;;14.72;60.78
85376;BME280;75780;43.986;22.860;2024-02-26T12:15:39;100919.59;;;14.74;60.28
85376;BME280;75780;43.986;22.860;2024-02-26T12:18:06;100880.63;;;14.41;60.53
85376;BME280;75780;43.986;22.860;2024-02-26T12:20:33;100867.91;;;14.30;60.90
85376;BME280;75780;43.986;22.860;2024-02-26T12:22:58;100907.97;;;14.26;61.49
85376;BME280;75780;43.986;22.860;2024-02-26T12:25:27;100904.31;;;14.33;61.74
85376;BME280;75780;43.986;22.860;2024-02-26T12:27:54;100913.19;;;14.85;60.24
85376;BME280;75780;43.986;22.860;2024-02-26T12:30:19;100921.41;;;14.99;60.29
85376;BME280;75780;43.986;22.860;2024-02-26T12:32:48;100903.13;;;14.72;59.87
85376;BME280;75780;43.986;22.860;2024-02-26T12:35:14;100871.97;;;14.40;59.93
85376;BME280;75780;43.986;22.860;2024-02-26T12:37:40;100920.56;;;14.12;62.15
85376;BME280;75780;43.986;22.860;2024-02-26T12:40:09;100920.50;;;13.83;63.49
85376;BME280;75780;43.986;22.860;2024-02-26T12:42:35;100867.16;;;13.67;63.39
85376;BME280;75780;43.986;22.860;2024-02-26T12:45:06;100898.78;;;13.84;63.35
85376;BME280;75780;43.986;22.860;2024-02-26T12:47:36;100904.47;;;13.98;62.83
85376;BME280;75780;43.986;22.860;2024-02-26T12:50:03;100881.56;;;14.09;61.38